sensor_id;sensor_type;location;lat;lon;timestamp;P1;durP1;ratioP1;P2;durP2;ratioP2
22565;SDS011;11449;51.330;19.378;2023-08-06T00:00:27;35.40;;;24.30;;
22565;SDS011;11449;51.330;19.378;2023-08-06T00:05:55;36.60;;;26.60;;
22565;SDS011;11449;51.330;19.378;2023-08-06T00:11:02;22.80;;;16.50;;
22565;SDS011;11449;51.330;19.378;2023-08-06T00:16:11;22.70;;;15.70;;
22565;SDS011;11449;51.330;19.378;2023-08-06T00:21:19;20.40;;;12.90;;
22565;SDS011;11449;51.330;19.378;2023-08-06T00:26:26;14.40;;;10.80;;
22565;SDS011;11449;51.330;19.378;2023-08-06T00:31:34;32.20;;;24.70;;
22565;SDS011;11449;51.330;19.378;2023-08-06T00:36:41;39.10;;;29.20;;
22565;SDS011;11449;51.330;19.378;2023-08-06T00:41:49;46.10;;;34.30;;
22565;SDS011;11449;51.330;19.378;2023-08-06T00:46:57;45.90;;;31.20;;
22565;SDS011;11449;51.330;19.378;2023-08-06T00:52:05;25.20;;;16.90;;
22565;SDS011;11449;51.330;19.378;2023-08-06T00:57:14;21.30;;;15.00;;
22565;SDS011;11449;51.330;19.378;2023-08-06T01:02:22;17.80;;;12.20;;
22565;SDS011;11449;51.330;19.378;2023-08-06T01:13:01;13.80;;;9.60;;
22565;SDS011;11449;51.330;19.378;2023-08-06T01:18:11;16.10;;;9.80;;
22565;SDS011;11449;51.330;19.378;2023-08-06T01:23:19;11.70;;;9.10;;
22565;SDS011;11449;51.330;19.378;2023-08-06T01:28:37;9.30;;;7.50;;
22565;SDS011;11449;51.330;19.378;2023-08-06T01:33:48;10.70;;;8.80;;
22565;SDS011;11449;51.330;19.378;2023-08-06T01:38:57;10.00;;;7.40;;
22565;SDS011;11449;51.330;19.378;2023-08-06T01:44:07;24.70;;;18.50;;
22565;SDS011;11449;51.330;19.378;2023-08-06T01:49:15;32.90;;;26.20;;
22565;SDS011;11449;51.330;19.378;2023-08-06T01:54:23;14.30;;;10.40;;
22565;SDS011;11449;51.330;19.378;2023-08-06T01:59:30;12.70;;;9.00;;
22565;SDS011;11449;51.330;19.378;2023-08-06T02:04:38;11.60;;;9.10;;
22565;SDS011;11449;51.330;19.378;2023-08-06T02:09:47;14.50;;;9.60;;
22565;SDS011;11449;51.330;19.378;2023-08-06T02:14:55;11.40;;;8.80;;
22565;SDS011;11449;51.330;19.378;2023-08-06T02:20:03;10.20;;;8.50;;
22565;SDS011;11449;51.330;19.378;2023-08-06T02:25:11;13.50;;;8.60;;
22565;SDS011;11449;51.330;19.378;2023-08-06T02:30:18;11.10;;;8.80;;
22565;SDS011;11449;51.330;19.378;2023-08-06T02:35:26;13.00;;;9.70;;
22565;SDS011;11449;51.330;19.378;2023-08-06T02:40:34;14.40;;;10.30;;
22565;SDS011;11449;51.330;19.378;2023-08-06T02:45:41;15.60;;;12.50;;
22565;SDS011;11449;51.330;19.378;2023-08-06T02:50:49;18.40;;;14.20;;
22565;SDS011;11449;51.330;19.378;2023-08-06T02:55:56;20.20;;;15.40;;
22565;SDS011;11449;51.330;19.378;2023-08-06T03:01:12;20.00;;;15.40;;
22565;SDS011;11449;51.330;19.378;2023-08-06T03:06:26;20.00;;;15.60;;
22565;SDS011;11449;51.330;19.378;2023-08-06T03:11:34;17.60;;;14.80;;
22565;SDS011;11449;51.330;19.378;2023-08-06T03:16:45;20.50;;;16.60;;
22565;SDS011;11449;51.330;19.378;2023-08-06T03:21:53;21.30;;;16.10;;
22565;SDS011;11449;51.330;19.378;2023-08-06T03:27:02;21.60;;;16.60;;
22565;SDS011;11449;51.330;19.378;2023-08-06T03:32:11;21.20;;;16.80;;
22565;SDS011;11449;51.330;19.378;2023-08-06T03:37:19;21.00;;;15.70;;
22565;SDS011;11449;51.330;19.378;2023-08-06T03:42:27;18.90;;;15.10;;
22565;SDS011;11449;51.330;19.378;2023-08-06T03:47:35;17.90;;;14.30;;
22565;SDS011;11449;51.330;19.378;2023-08-06T03:52:43;17.30;;;14.30;;
22565;SDS011;11449;51.330;19.378;2023-08-06T03:57:51;16.90;;;13.60;;
22565;SDS011;11449;51.330;19.378;2023-08-06T04:02:58;16.70;;;13.40;;
22565;SDS011;11449;51.330;19.378;2023-08-06T04:08:06;18.30;;;13.80;;
22565;SDS011;11449;51.330;19.378;2023-08-06T04:13:14;18.10;;;13.80;;
22565;SDS011;11449;51.330;19.378;2023-08-06T04:18:22;17.00;;;13.70;;
22565;SDS011;11449;51.330;19.378;2023-08-06T04:23:30;21.60;;;16.10;;
22565;SDS011;11449;51.330;19.378;2023-08-06T04:28:39;19.60;;;15.20;;
22565;SDS011;11449;51.330;19.378;2023-08-06T04:33:47;21.80;;;16.40;;
22565;SDS011;11449;51.330;19.378;2023-08-06T04:38:55;26.50;;;16.50;;
22565;SDS011;11449;51.330;19.378;2023-08-06T04:44:03;24.70;;;16.90;;
22565;SDS011;11449;51.330;19.378;2023-08-06T04:49:11;27.50;;;18.00;;
22565;SDS011;11449;51.330;19.378;2023-08-06T04:54:19;25.00;;;17.60;;
22565;SDS011;11449;51.330;19.378;2023-08-06T04:59:27;29.00;;;19.70;;
22565;SDS011;11449;51.330;19.378;2023-08-06T05:04:34;26.10;;;17.70;;
22565;SDS011;11449;51.330;19.378;2023-08-06T05:09:42;26.40;;;18.00;;
22565;SDS011;11449;51.330;19.378;2023-08-06T05:14:50;26.50;;;17.80;;
22565;SDS011;11449;51.330;19.378;2023-08-06T05:19:57;27.30;;;17.50;;
22565;SDS011;11449;51.330;19.378;2023-08-06T05:25:05;23.00;;;17.00;;
22565;SDS011;11449;51.330;19.378;2023-08-06T05:30:13;24.10;;;17.00;;
22565;SDS011;11449;51.330;19.378;2023-08-06T05:35:21;23.70;;;16.90;;
22565;SDS011;11449;51.330;19.378;2023-08-06T05:40:29;24.50;;;14.70;;
22565;SDS011;11449;51.330;19.378;2023-08-06T05:45:37;22.20;;;15.00;;
22565;SDS011;11449;51.330;19.378;2023-08-06T05:50:45;21.80;;;14.70;;
22565;SDS011;11449;51.330;19.378;2023-08-06T05:55:52;17.60;;;12.10;;
22565;SDS011;11449;51.330;19.378;2023-08-06T06:01:00;16.60;;;11.60;;
22565;SDS011;11449;51.330;19.378;2023-08-06T06:06:08;18.90;;;12.90;;
22565;SDS011;11449;51.330;19.378;2023-08-06T06:11:15;16.50;;;11.00;;
22565;SDS011;11449;51.330;19.378;2023-08-06T06:16:23;15.00;;;10.90;;
22565;SDS011;11449;51.330;19.378;2023-08-06T06:21:30;14.80;;;11.10;;
22565;SDS011;11449;51.330;19.378;2023-08-06T06:26:38;18.70;;;11.40;;
22565;SDS011;11449;51.330;19.378;2023-08-06T06:31:46;13.50;;;9.70;;
22565;SDS011;11449;51.330;19.378;2023-08-06T06:36:54;12.10;;;9.30;;
22565;SDS011;11449;51.330;19.378;2023-08-06T06:42:02;11.70;;;8.10;;
22565;SDS011;11449;51.330;19.378;2023-08-06T06:47:11;10.80;;;8.30;;
22565;SDS011;11449;51.330;19.378;2023-08-06T06:52:19;10.90;;;7.90;;
22565;SDS011;11449;51.330;19.378;2023-08-06T06:57:27;9.90;;;7.50;;
22565;SDS011;11449;51.330;19.378;2023-08-06T07:02:34;9.90;;;7.20;;
22565;SDS011;11449;51.330;19.378;2023-08-06T07:07:42;10.20;;;7.20;;
22565;SDS011;11449;51.330;19.378;2023-08-06T07:12:49;12.00;;;8.90;;
22565;SDS011;11449;51.330;19.378;2023-08-06T07:17:57;9.30;;;7.30;;
22565;SDS011;11449;51.330;19.378;2023-08-06T07:23:05;11.20;;;7.50;;
22565;SDS011;11449;51.330;19.378;2023-08-06T07:28:13;8.30;;;5.80;;
22565;SDS011;11449;51.330;19.378;2023-08-06T07:33:21;8.00;;;6.30;;
22565;SDS011;11449;51.330;19.378;2023-08-06T07:38:29;9.20;;;6.50;;
22565;SDS011;11449;51.330;19.378;2023-08-06T07:43:37;9.10;;;7.10;;
22565;SDS011;11449;51.330;19.378;2023-08-06T07:48:44;11.60;;;8.00;;
22565;SDS011;11449;51.330;19.378;2023-08-06T07:53:52;10.60;;;7.70;;
22565;SDS011;11449;51.330;19.378;2023-08-06T07:59:00;11.40;;;8.30;;
22565;SDS011;11449;51.330;19.378;2023-08-06T08:04:07;11.70;;;8.20;;
22565;SDS011;11449;51.330;19.378;2023-08-06T08:09:15;11.30;;;8.20;;
22565;SDS011;11449;51.330;19.378;2023-08-06T08:14:23;11.90;;;8.40;;
22565;SDS011;11449;51.330;19.378;2023-08-06T08:19:31;12.50;;;8.50;;
22565;SDS011;11449;51.330;19.378;2023-08-06T08:24:38;12.20;;;8.80;;
22565;SDS011;11449;51.330;19.378;2023-08-06T08:29:46;12.90;;;9.00;;
22565;SDS011;11449;51.330;19.378;2023-08-06T08:34:54;10.80;;;8.40;;
22565;SDS011;11449;51.330;19.378;2023-08-06T08:40:01;11.50;;;8.20;;
22565;SDS011;11449;51.330;19.378;2023-08-06T08:45:11;11.10;;;8.60;;
22565;SDS011;11449;51.330;19.378;2023-08-06T08:50:21;12.20;;;8.60;;
22565;SDS011;11449;51.330;19.378;2023-08-06T08:55:28;13.10;;;8.40;;
22565;SDS011;11449;51.330;19.378;2023-08-06T09:00:36;12.70;;;8.50;;
22565;SDS011;11449;51.330;19.378;2023-08-06T09:05:44;15.60;;;9.30;;
22565;SDS011;11449;51.330;19.378;2023-08-06T09:10:52;13.40;;;8.40;;
22565;SDS011;11449;51.330;19.378;2023-08-06T09:16:00;11.90;;;8.40;;
22565;SDS011;11449;51.330;19.378;2023-08-06T09:21:12;11.40;;;8.40;;
22565;SDS011;11449;51.330;19.378;2023-08-06T09:26:20;11.50;;;8.40;;
22565;SDS011;11449;51.330;19.378;2023-08-06T09:31:23;11.40;;;8.60;;
22565;SDS011;11449;51.330;19.378;2023-08-06T09:36:26;12.30;;;9.00;;
22565;SDS011;11449;51.330;19.378;2023-08-06T09:41:34;12.30;;;8.50;;
22565;SDS011;11449;51.330;19.378;2023-08-06T09:46:42;14.00;;;9.20;;
22565;SDS011;11449;51.330;19.378;2023-08-06T09:51:50;14.90;;;9.90;;
22565;SDS011;11449;51.330;19.378;2023-08-06T09:56:59;15.70;;;9.50;;
22565;SDS011;11449;51.330;19.378;2023-08-06T10:02:08;14.30;;;10.30;;
22565;SDS011;11449;51.330;19.378;2023-08-06T10:07:19;15.90;;;10.90;;
22565;SDS011;11449;51.330;19.378;2023-08-06T10:12:28;18.10;;;11.70;;
22565;SDS011;11449;51.330;19.378;2023-08-06T10:17:36;19.20;;;13.10;;
22565;SDS011;11449;51.330;19.378;2023-08-06T10:22:44;24.30;;;15.60;;
22565;SDS011;11449;51.330;19.378;2023-08-06T10:27:53;25.40;;;16.60;;
22565;SDS011;11449;51.330;19.378;2023-08-06T10:33:02;27.40;;;16.40;;
22565;SDS011;11449;51.330;19.378;2023-08-06T10:43:25;2.50;;;1.70;;
22565;SDS011;11449;51.330;19.378;2023-08-06T10:48:34;2.60;;;1.10;;
22565;SDS011;11449;51.330;19.378;2023-08-06T10:53:44;4.40;;;1.40;;
22565;SDS011;11449;51.330;19.378;2023-08-06T10:58:53;2.10;;;1.10;;
22565;SDS011;11449;51.330;19.378;2023-08-06T11:03:57;2.80;;;1.20;;
22565;SDS011;11449;51.330;19.378;2023-08-06T11:09:08;1.60;;;1.10;;
22565;SDS011;11449;51.330;19.378;2023-08-06T11:14:16;3.10;;;1.10;;
22565;SDS011;11449;51.330;19.378;2023-08-06T11:19:24;1.60;;;0.90;;
22565;SDS011;11449;51.330;19.378;2023-08-06T11:24:32;1.00;;;0.80;;
22565;SDS011;11449;51.330;19.378;2023-08-06T11:29:40;2.70;;;1.00;;
22565;SDS011;11449;51.330;19.378;2023-08-06T11:34:48;2.30;;;1.50;;
22565;SDS011;11449;51.330;19.378;2023-08-06T11:39:56;3.40;;;1.00;;
22565;SDS011;11449;51.330;19.378;2023-08-06T11:45:08;2.50;;;1.40;;
22565;SDS011;11449;51.330;19.378;2023-08-06T11:50:26;2.00;;;1.50;;
22565;SDS011;11449;51.330;19.378;2023-08-06T11:55:35;2.40;;;1.20;;
22565;SDS011;11449;51.330;19.378;2023-08-06T12:00:42;1.60;;;1.00;;
22565;SDS011;11449;51.330;19.378;2023-08-06T12:05:53;1.80;;;1.00;;
22565;SDS011;11449;51.330;19.378;2023-08-06T12:11:01;0.90;;;0.80;;
22565;SDS011;11449;51.330;19.378;2023-08-06T12:16:08;4.70;;;1.60;;
22565;SDS011;11449;51.330;19.378;2023-08-06T12:21:16;4.10;;;1.50;;
22565;SDS011;11449;51.330;19.378;2023-08-06T12:26:24;3.90;;;1.60;;
22565;SDS011;11449;51.330;19.378;2023-08-06T12:31:31;2.60;;;1.30;;
22565;SDS011;11449;51.330;19.378;2023-08-06T12:36:39;2.70;;;1.50;;
22565;SDS011;11449;51.330;19.378;2023-08-06T12:41:42;2.20;;;1.50;;
22565;SDS011;11449;51.330;19.378;2023-08-06T12:46:51;2.40;;;1.50;;
22565;SDS011;11449;51.330;19.378;2023-08-06T12:52:02;1.60;;;1.20;;
22565;SDS011;11449;51.330;19.378;2023-08-06T12:57:12;3.60;;;1.10;;
22565;SDS011;11449;51.330;19.378;2023-08-06T13:02:19;2.30;;;1.30;;
22565;SDS011;11449;51.330;19.378;2023-08-06T13:07:28;2.70;;;1.40;;
22565;SDS011;11449;51.330;19.378;2023-08-06T13:12:36;1.50;;;0.90;;
22565;SDS011;11449;51.330;19.378;2023-08-06T13:17:44;1.90;;;1.40;;
22565;SDS011;11449;51.330;19.378;2023-08-06T13:22:51;3.40;;;1.40;;
22565;SDS011;11449;51.330;19.378;2023-08-06T13:28:01;2.00;;;1.30;;
22565;SDS011;11449;51.330;19.378;2023-08-06T13:33:09;1.60;;;1.30;;
22565;SDS011;11449;51.330;19.378;2023-08-06T13:38:17;1.80;;;1.30;;
22565;SDS011;11449;51.330;19.378;2023-08-06T13:43:24;4.30;;;1.60;;
22565;SDS011;11449;51.330;19.378;2023-08-06T13:48:32;3.20;;;1.70;;
22565;SDS011;11449;51.330;19.378;2023-08-06T13:53:40;6.70;;;2.30;;
22565;SDS011;11449;51.330;19.378;2023-08-06T13:58:48;28.80;;;17.40;;
22565;SDS011;11449;51.330;19.378;2023-08-06T14:03:55;56.20;;;5.20;;
22565;SDS011;11449;51.330;19.378;2023-08-06T14:09:03;46.90;;;4.40;;
22565;SDS011;11449;51.330;19.378;2023-08-06T14:14:12;64.80;;;6.20;;
22565;SDS011;11449;51.330;19.378;2023-08-06T14:19:20;70.10;;;6.90;;
22565;SDS011;11449;51.330;19.378;2023-08-06T14:24:29;53.00;;;8.30;;
22565;SDS011;11449;51.330;19.378;2023-08-06T14:29:36;170.50;;;89.20;;
22565;SDS011;11449;51.330;19.378;2023-08-06T14:34:44;264.00;;;160.80;;
22565;SDS011;11449;51.330;19.378;2023-08-06T14:39:52;200.20;;;125.20;;
22565;SDS011;11449;51.330;19.378;2023-08-06T14:45:00;227.30;;;139.90;;
22565;SDS011;11449;51.330;19.378;2023-08-06T14:50:07;294.80;;;190.00;;
22565;SDS011;11449;51.330;19.378;2023-08-06T14:55:25;112.30;;;63.30;;
22565;SDS011;11449;51.330;19.378;2023-08-06T15:00:33;136.40;;;122.30;;
22565;SDS011;11449;51.330;19.378;2023-08-06T15:05:43;204.90;;;182.50;;
22565;SDS011;11449;51.330;19.378;2023-08-06T15:10:51;122.50;;;53.30;;
22565;SDS011;11449;51.330;19.378;2023-08-06T15:15:59;7.00;;;2.40;;
22565;SDS011;11449;51.330;19.378;2023-08-06T15:21:07;4.70;;;1.80;;
22565;SDS011;11449;51.330;19.378;2023-08-06T15:26:15;6.30;;;3.20;;
22565;SDS011;11449;51.330;19.378;2023-08-06T15:31:22;4.30;;;1.90;;
22565;SDS011;11449;51.330;19.378;2023-08-06T15:36:30;4.50;;;2.00;;
22565;SDS011;11449;51.330;19.378;2023-08-06T15:41:38;5.10;;;1.90;;
22565;SDS011;11449;51.330;19.378;2023-08-06T15:46:45;7.70;;;2.50;;
22565;SDS011;11449;51.330;19.378;2023-08-06T15:51:53;5.40;;;1.90;;
22565;SDS011;11449;51.330;19.378;2023-08-06T15:57:01;5.90;;;2.10;;
22565;SDS011;11449;51.330;19.378;2023-08-06T16:02:09;10.80;;;3.60;;
22565;SDS011;11449;51.330;19.378;2023-08-06T16:07:17;7.10;;;2.80;;
22565;SDS011;11449;51.330;19.378;2023-08-06T16:12:26;8.80;;;3.60;;
22565;SDS011;11449;51.330;19.378;2023-08-06T16:17:34;9.80;;;3.60;;
22565;SDS011;11449;51.330;19.378;2023-08-06T16:22:42;6.10;;;2.50;;
22565;SDS011;11449;51.330;19.378;2023-08-06T16:27:49;7.50;;;2.70;;
22565;SDS011;11449;51.330;19.378;2023-08-06T16:32:57;11.20;;;3.10;;
22565;SDS011;11449;51.330;19.378;2023-08-06T16:38:05;13.70;;;4.10;;
22565;SDS011;11449;51.330;19.378;2023-08-06T16:43:14;17.10;;;5.20;;
22565;SDS011;11449;51.330;19.378;2023-08-06T16:48:24;13.20;;;3.80;;
22565;SDS011;11449;51.330;19.378;2023-08-06T16:53:38;11.80;;;3.40;;
22565;SDS011;11449;51.330;19.378;2023-08-06T16:58:45;13.60;;;3.30;;
22565;SDS011;11449;51.330;19.378;2023-08-06T17:03:49;27.30;;;10.80;;
22565;SDS011;11449;51.330;19.378;2023-08-06T17:08:59;13.60;;;5.80;;
22565;SDS011;11449;51.330;19.378;2023-08-06T17:14:07;15.50;;;3.80;;
22565;SDS011;11449;51.330;19.378;2023-08-06T17:19:15;19.10;;;4.00;;
22565;SDS011;11449;51.330;19.378;2023-08-06T17:24:23;38.90;;;6.30;;
22565;SDS011;11449;51.330;19.378;2023-08-06T17:29:30;23.50;;;2.70;;
22565;SDS011;11449;51.330;19.378;2023-08-06T17:34:38;33.00;;;3.20;;
22565;SDS011;11449;51.330;19.378;2023-08-06T17:39:46;12.70;;;2.90;;
22565;SDS011;11449;51.330;19.378;2023-08-06T17:44:54;14.60;;;2.80;;
22565;SDS011;11449;51.330;19.378;2023-08-06T17:50:02;17.00;;;3.00;;
22565;SDS011;11449;51.330;19.378;2023-08-06T17:55:11;205.50;;;117.30;;
22565;SDS011;11449;51.330;19.378;2023-08-06T18:00:18;5.30;;;2.60;;
22565;SDS011;11449;51.330;19.378;2023-08-06T18:05:26;4.40;;;1.60;;
22565;SDS011;11449;51.330;19.378;2023-08-06T18:10:38;4.00;;;1.80;;
22565;SDS011;11449;51.330;19.378;2023-08-06T18:15:46;5.60;;;1.80;;
22565;SDS011;11449;51.330;19.378;2023-08-06T18:20:55;3.30;;;1.60;;
22565;SDS011;11449;51.330;19.378;2023-08-06T18:26:03;4.90;;;2.00;;
22565;SDS011;11449;51.330;19.378;2023-08-06T18:31:11;5.00;;;2.30;;
22565;SDS011;11449;51.330;19.378;2023-08-06T18:36:19;2.60;;;1.40;;
22565;SDS011;11449;51.330;19.378;2023-08-06T18:41:27;4.70;;;1.50;;
22565;SDS011;11449;51.330;19.378;2023-08-06T18:46:34;1.80;;;1.00;;
22565;SDS011;11449;51.330;19.378;2023-08-06T18:51:42;1.20;;;0.90;;
22565;SDS011;11449;51.330;19.378;2023-08-06T18:56:50;1.90;;;1.40;;
22565;SDS011;11449;51.330;19.378;2023-08-06T19:01:58;4.00;;;1.10;;
22565;SDS011;11449;51.330;19.378;2023-08-06T19:07:06;3.10;;;1.20;;
22565;SDS011;11449;51.330;19.378;2023-08-06T19:12:13;4.30;;;1.60;;
22565;SDS011;11449;51.330;19.378;2023-08-06T19:17:22;3.80;;;1.60;;
22565;SDS011;11449;51.330;19.378;2023-08-06T19:22:30;2.80;;;1.50;;
22565;SDS011;11449;51.330;19.378;2023-08-06T19:27:38;3.30;;;1.80;;
22565;SDS011;11449;51.330;19.378;2023-08-06T19:32:46;3.30;;;1.60;;
22565;SDS011;11449;51.330;19.378;2023-08-06T19:37:53;4.80;;;1.60;;
22565;SDS011;11449;51.330;19.378;2023-08-06T19:43:01;3.60;;;1.90;;
22565;SDS011;11449;51.330;19.378;2023-08-06T19:48:09;2.90;;;1.60;;
22565;SDS011;11449;51.330;19.378;2023-08-06T19:53:17;3.40;;;1.60;;
22565;SDS011;11449;51.330;19.378;2023-08-06T19:58:26;2.60;;;1.50;;
22565;SDS011;11449;51.330;19.378;2023-08-06T20:03:34;2.80;;;1.60;;
22565;SDS011;11449;51.330;19.378;2023-08-06T20:08:41;3.70;;;1.80;;
22565;SDS011;11449;51.330;19.378;2023-08-06T20:13:49;3.20;;;1.60;;
22565;SDS011;11449;51.330;19.378;2023-08-06T20:18:57;3.40;;;1.50;;
22565;SDS011;11449;51.330;19.378;2023-08-06T20:24:04;4.50;;;1.90;;
22565;SDS011;11449;51.330;19.378;2023-08-06T20:29:13;5.20;;;2.00;;
22565;SDS011;11449;51.330;19.378;2023-08-06T20:34:21;7.80;;;2.10;;
22565;SDS011;11449;51.330;19.378;2023-08-06T20:39:29;3.60;;;1.70;;
22565;SDS011;11449;51.330;19.378;2023-08-06T20:44:36;3.40;;;1.50;;
22565;SDS011;11449;51.330;19.378;2023-08-06T20:49:44;2.90;;;1.70;;
22565;SDS011;11449;51.330;19.378;2023-08-06T20:54:52;3.40;;;1.50;;
22565;SDS011;11449;51.330;19.378;2023-08-06T21:00:00;19.20;;;7.50;;
22565;SDS011;11449;51.330;19.378;2023-08-06T21:05:07;5.00;;;2.20;;
22565;SDS011;11449;51.330;19.378;2023-08-06T21:10:15;6.90;;;2.70;;
22565;SDS011;11449;51.330;19.378;2023-08-06T21:15:23;5.30;;;2.70;;
22565;SDS011;11449;51.330;19.378;2023-08-06T21:20:30;4.90;;;2.50;;
22565;SDS011;11449;51.330;19.378;2023-08-06T21:25:38;5.70;;;2.30;;
22565;SDS011;11449;51.330;19.378;2023-08-06T21:30:52;5.80;;;2.00;;
22565;SDS011;11449;51.330;19.378;2023-08-06T21:36:00;6.50;;;2.20;;
22565;SDS011;11449;51.330;19.378;2023-08-06T21:41:10;3.30;;;2.20;;
22565;SDS011;11449;51.330;19.378;2023-08-06T21:46:17;5.30;;;1.90;;
22565;SDS011;11449;51.330;19.378;2023-08-06T21:51:25;3.10;;;2.20;;
22565;SDS011;11449;51.330;19.378;2023-08-06T21:56:33;4.90;;;2.10;;
22565;SDS011;11449;51.330;19.378;2023-08-06T22:01:40;3.80;;;2.10;;
22565;SDS011;11449;51.330;19.378;2023-08-06T22:06:48;4.80;;;2.20;;
22565;SDS011;11449;51.330;19.378;2023-08-06T22:11:56;4.10;;;1.90;;
22565;SDS011;11449;51.330;19.378;2023-08-06T22:17:04;3.90;;;2.30;;
22565;SDS011;11449;51.330;19.378;2023-08-06T22:22:11;3.60;;;2.20;;
22565;SDS011;11449;51.330;19.378;2023-08-06T22:27:20;6.70;;;2.40;;
22565;SDS011;11449;51.330;19.378;2023-08-06T22:32:28;5.40;;;2.30;;
22565;SDS011;11449;51.330;19.378;2023-08-06T22:37:37;10.80;;;2.40;;
22565;SDS011;11449;51.330;19.378;2023-08-06T22:42:44;3.20;;;2.00;;
22565;SDS011;11449;51.330;19.378;2023-08-06T22:47:52;4.30;;;2.40;;
22565;SDS011;11449;51.330;19.378;2023-08-06T22:53:00;3.90;;;2.10;;
22565;SDS011;11449;51.330;19.378;2023-08-06T22:58:07;4.30;;;2.20;;
22565;SDS011;11449;51.330;19.378;2023-08-06T23:03:15;4.20;;;2.70;;
22565;SDS011;11449;51.330;19.378;2023-08-06T23:08:23;4.80;;;2.50;;
22565;SDS011;11449;51.330;19.378;2023-08-06T23:13:31;5.30;;;2.60;;
22565;SDS011;11449;51.330;19.378;2023-08-06T23:18:38;3.50;;;2.30;;
22565;SDS011;11449;51.330;19.378;2023-08-06T23:23:46;3.50;;;2.40;;
22565;SDS011;11449;51.330;19.378;2023-08-06T23:28:54;4.00;;;2.60;;
22565;SDS011;11449;51.330;19.378;2023-08-06T23:34:01;5.80;;;2.70;;
22565;SDS011;11449;51.330;19.378;2023-08-06T23:39:09;4.50;;;3.10;;
22565;SDS011;11449;51.330;19.378;2023-08-06T23:44:18;4.80;;;3.00;;
22565;SDS011;11449;51.330;19.378;2023-08-06T23:49:26;4.10;;;2.80;;
22565;SDS011;11449;51.330;19.378;2023-08-06T23:54:34;5.20;;;2.90;;
22565;SDS011;11449;51.330;19.378;2023-08-06T23:59:41;4.60;;;3.20;;
